Time;durP1;ratioP1;P1;durP2;ratioP2;P2;SDS_P1;SDS_P2;PMS_P1;PMS_P2;Temp;Humidity;BMP_temperature;BMP_pressure;BME280_temperature;BME280_humidity;BME280_pressure;Samples;Min_cycle;Max_cycle;Signal;HPM_P1;HPM_P2
2021/10/11 00:02:15;;;;;;;31.90;15.40;;;6.60;93.30;;;;;;5073693;28;20646;-76
2021/10/11 00:04:41;;;;;;;28.23;14.73;;;6.60;93.40;;;;;;5076473;28;20983;-76
2021/10/11 00:07:08;;;;;;;31.80;17.10;;;6.60;93.60;;;;;;5081617;28;20678;-75
2021/10/11 00:09:34;;;;;;;29.07;16.27;;;6.60;93.60;;;;;;5074999;28;20192;-75
2021/10/11 00:12:00;;;;;;;36.33;15.73;;;6.60;93.60;;;;;;5075479;28;20426;-74
2021/10/11 00:14:26;;;;;;;27.60;15.30;;;6.50;93.70;;;;;;5082890;28;20426;-75
2021/10/11 00:16:52;;;;;;;31.33;16.23;;;6.50;93.60;;;;;;5083780;28;20218;-75
2021/10/11 00:19:18;;;;;;;32.10;15.20;;;6.50;93.60;;;;;;5077042;28;20418;-75
2021/10/11 00:21:44;;;;;;;30.90;16.33;;;6.50;93.70;;;;;;5070642;28;20428;-74
2021/10/11 00:24:10;;;;;;;26.87;15.00;;;6.60;93.70;;;;;;5071187;28;20418;-76
2021/10/11 00:26:36;;;;;;;25.13;14.53;;;6.60;93.50;;;;;;5069781;28;20422;-75
2021/10/11 00:29:02;;;;;;;31.20;17.00;;;6.50;93.40;;;;;;5071090;28;20190;-75
2021/10/11 00:31:28;;;;;;;29.10;16.23;;;6.50;93.60;;;;;;5069766;28;20218;-76
2021/10/11 00:33:53;;;;;;;25.90;15.37;;;6.40;93.80;;;;;;5061315;28;20929;-75
2021/10/11 00:36:19;;;;;;;27.20;15.60;;;6.40;93.90;;;;;;5067991;28;20188;-74
2021/10/11 00:38:45;;;;;;;26.13;16.20;;;6.40;94.00;;;;;;5070029;28;20199;-74
2021/10/11 00:41:11;;;;;;;26.17;16.43;;;6.40;94.10;;;;;;5070449;28;20590;-76
2021/10/11 00:43:38;;;;;;;31.17;15.97;;;6.40;94.10;;;;;;5069862;28;20194;-75
2021/10/11 00:46:04;;;;;;;30.90;15.40;;;6.30;94.10;;;;;;5068218;28;20200;-74
2021/10/11 00:48:29;;;;;;;33.60;15.47;;;6.30;94.10;;;;;;5070480;28;20462;-74
2021/10/11 00:50:57;;;;;;;27.17;15.00;;;6.30;94.20;;;;;;5069824;28;20272;-75
2021/10/11 00:53:26;;;;;;;34.33;16.43;;;6.30;94.20;;;;;;5061607;28;20188;-75
2021/10/11 00:55:52;;;;;;;26.13;15.03;;;6.40;94.30;;;;;;5068517;28;20426;-75
2021/10/11 00:58:17;;;;;;;29.73;16.23;;;6.40;94.20;;;;;;5068819;28;20462;-74
2021/10/11 01:00:43;;;;;;;31.73;17.00;;;6.40;94.00;;;;;;5068396;28;20434;-75
2021/10/11 01:03:09;;;;;;;29.23;15.53;;;6.40;93.90;;;;;;5069965;28;20183;-75
2021/10/11 01:05:35;;;;;;;28.20;16.50;;;6.40;93.90;;;;;;5069497;28;20237;-75
2021/10/11 01:08:00;;;;;;;29.53;15.00;;;6.40;93.70;;;;;;5068466;28;20215;-75
2021/10/11 01:10:26;;;;;;;27.47;14.40;;;6.30;93.00;;;;;;5062742;28;20693;-75
2021/10/11 01:12:52;;;;;;;28.87;15.87;;;6.10;92.90;;;;;;5069674;28;20180;-75
2021/10/11 01:15:17;;;;;;;31.37;16.40;;;5.90;93.70;;;;;;5067984;28;20187;-74
2021/10/11 01:17:43;;;;;;;31.70;16.37;;;5.70;94.20;;;;;;5070206;28;20208;-75
2021/10/11 01:20:09;;;;;;;32.40;16.83;;;5.60;94.60;;;;;;5073163;28;20203;-75
2021/10/11 01:22:41;;;;;;;37.07;16.97;;;5.60;94.90;;;;;;5074632;28;20192;-74
2021/10/11 01:25:10;;;;;;;30.00;16.40;;;5.70;95.10;;;;;;5073137;28;20421;-75
2021/10/11 01:27:36;;;;;;;30.37;17.17;;;5.70;95.10;;;;;;5073359;28;20418;-75
2021/10/11 01:30:04;;;;;;;35.30;17.77;;;5.70;95.20;;;;;;5071843;28;21083;-75
2021/10/11 01:32:30;;;;;;;34.00;16.53;;;5.70;95.30;;;;;;5064941;28;20928;-74
2021/10/11 01:34:56;;;;;;;33.33;16.97;;;5.70;95.30;;;;;;5069856;28;20478;-74
2021/10/11 01:37:22;;;;;;;33.73;17.70;;;5.70;95.10;;;;;;5072349;28;20196;-75
2021/10/11 01:39:47;;;;;;;28.80;15.53;;;5.70;95.00;;;;;;5070464;28;20207;-75
2021/10/11 01:42:13;;;;;;;29.33;16.27;;;5.70;94.90;;;;;;5072604;28;20422;-74
2021/10/11 01:44:40;;;;;;;29.00;15.50;;;5.80;95.00;;;;;;5075745;28;20184;-75
2021/10/11 01:47:05;;;;;;;36.27;17.80;;;5.80;95.00;;;;;;5079312;28;20191;-74
2021/10/11 01:49:31;;;;;;;33.67;17.60;;;5.80;95.00;;;;;;5076734;28;20415;-75
2021/10/11 01:51:57;;;;;;;37.30;17.53;;;5.80;95.00;;;;;;5071482;28;20183;-75
2021/10/11 01:54:23;;;;;;;33.10;17.83;;;5.80;94.80;;;;;;5076101;28;20439;-74
2021/10/11 01:56:49;;;;;;;33.60;17.90;;;5.70;94.80;;;;;;5075337;28;20214;-74
2021/10/11 01:59:14;;;;;;;30.43;17.37;;;5.80;94.80;;;;;;5076937;28;20191;-75
2021/10/11 02:01:40;;;;;;;32.03;17.13;;;5.80;94.80;;;;;;5080934;28;20207;-75
2021/10/11 02:04:06;;;;;;;35.23;17.83;;;5.80;94.70;;;;;;5063686;28;20674;-75
2021/10/11 02:06:32;;;;;;;31.17;16.40;;;5.80;94.30;;;;;;5067716;28;20232;-74
2021/10/11 02:08:57;;;;;;;30.87;17.10;;;5.80;94.30;;;;;;5074699;28;20202;-74
2021/10/11 02:11:23;;;;;;;34.37;18.47;;;5.70;94.40;;;;;;5062584;28;20469;-75
2021/10/11 02:13:49;;;;;;;32.53;17.27;;;5.70;94.40;;;;;;5073697;28;20611;-74
2021/10/11 02:16:15;;;;;;;33.40;17.07;;;5.60;94.30;;;;;;5072554;28;20985;-75
2021/10/11 02:18:40;;;;;;;37.37;17.87;;;5.60;94.50;;;;;;5067492;28;20314;-74
2021/10/11 02:21:06;;;;;;;35.30;17.50;;;5.60;94.60;;;;;;5064984;28;20223;-75
2021/10/11 02:23:32;;;;;;;37.83;17.80;;;5.60;94.70;;;;;;5072027;28;20214;-76
2021/10/11 02:25:58;;;;;;;30.17;15.80;;;5.50;94.70;;;;;;5071935;28;20425;-77
2021/10/11 02:28:23;;;;;;;39.27;18.20;;;5.50;94.80;;;;;;5072082;28;20257;-75
2021/10/11 02:30:49;;;;;;;30.20;16.53;;;5.60;94.90;;;;;;5070762;28;20210;-74
2021/10/11 02:33:15;;;;;;;35.00;17.20;;;5.60;94.80;;;;;;5068963;28;20231;-74
2021/10/11 02:35:41;;;;;;;34.73;17.53;;;5.60;94.70;;;;;;5071736;28;20179;-75
2021/10/11 02:38:06;;;;;;;36.07;18.50;;;5.60;94.50;;;;;;5067159;28;20208;-74
2021/10/11 02:40:33;;;;;;;31.00;19.50;;;5.50;94.40;;;;;;5070440;28;20640;-75
2021/10/11 02:42:59;;;;;;;31.13;17.67;;;5.40;94.50;;;;;;5071270;28;20180;-74
2021/10/11 02:45:24;;;;;;;33.83;18.13;;;5.40;94.70;;;;;;5069625;28;20958;-74
2021/10/11 02:47:50;;;;;;;26.80;16.90;;;5.40;94.70;;;;;;5071244;28;20188;-74
2021/10/11 02:50:16;;;;;;;28.90;17.17;;;5.30;94.80;;;;;;5071627;28;20215;-74
2021/10/11 02:52:41;;;;;;;28.47;16.90;;;5.30;94.90;;;;;;5071874;28;20662;-75
2021/10/11 02:55:07;;;;;;;36.97;16.50;;;5.30;94.90;;;;;;5070627;28;20192;-75
2021/10/11 02:57:33;;;;;;;31.97;18.03;;;5.40;94.90;;;;;;5073137;28;20967;-76
2021/10/11 02:59:59;;;;;;;39.43;19.73;;;5.30;94.90;;;;;;5071428;28;20984;-75
2021/10/11 03:02:25;;;;;;;32.87;16.37;;;5.20;94.90;;;;;;5072068;28;20398;-76
2021/10/11 03:04:50;;;;;;;36.97;18.50;;;5.20;95.00;;;;;;5069908;28;20571;-76
2021/10/11 03:07:19;;;;;;;35.03;16.80;;;5.20;95.00;;;;;;5073158;28;20233;-76
2021/10/11 03:09:45;;;;;;;43.70;20.57;;;5.20;95.10;;;;;;5071707;28;20206;-76
2021/10/11 03:12:12;;;;;;;36.83;18.90;;;5.30;95.10;;;;;;5068416;28;20425;-76
2021/10/11 03:14:39;;;;;;;31.67;16.90;;;5.20;95.10;;;;;;5072152;28;20784;-76
2021/10/11 03:17:04;;;;;;;34.83;17.10;;;5.20;95.10;;;;;;5063716;28;20992;-76
2021/10/11 03:19:30;;;;;;;33.20;17.47;;;5.20;95.30;;;;;;5056149;28;20529;-77
2021/10/11 03:21:56;;;;;;;34.73;18.03;;;5.30;95.30;;;;;;5070828;28;20599;-76
2021/10/11 03:24:21;;;;;;;30.93;18.03;;;5.20;95.30;;;;;;5068006;28;20895;-77
2021/10/11 03:26:47;;;;;;;31.63;17.00;;;5.20;95.30;;;;;;5071360;28;20559;-76
2021/10/11 03:29:13;;;;;;;34.70;17.27;;;5.20;95.40;;;;;;5072205;28;20183;-75
2021/10/11 03:31:39;;;;;;;39.13;17.83;;;5.30;95.50;;;;;;5072092;28;20705;-76
2021/10/11 03:34:06;;;;;;;34.67;17.53;;;5.30;95.20;;;;;;5067422;28;20261;-75
2021/10/11 03:36:35;;;;;;;30.03;16.80;;;5.20;95.00;;;;;;5070514;28;20188;-75
2021/10/11 03:39:01;;;;;;;39.60;20.53;;;5.30;95.00;;;;;;5067297;28;20442;-76
2021/10/11 03:41:27;;;;;;;33.53;18.83;;;5.20;94.90;;;;;;5073731;28;20434;-76
2021/10/11 03:43:52;;;;;;;30.40;16.80;;;5.10;95.00;;;;;;5073753;28;20488;-76
2021/10/11 03:46:18;;;;;;;33.53;17.50;;;5.00;95.10;;;;;;5074641;28;20176;-76
2021/10/11 03:48:44;;;;;;;33.73;17.50;;;5.10;95.40;;;;;;5074182;28;20528;-76
2021/10/11 03:51:10;;;;;;;30.27;17.07;;;5.10;95.30;;;;;;5074082;28;20287;-75
2021/10/11 03:53:36;;;;;;;32.57;18.90;;;5.00;95.20;;;;;;5074781;28;20183;-75
2021/10/11 03:56:02;;;;;;;36.13;19.30;;;5.00;95.20;;;;;;5073769;28;20207;-76
2021/10/11 03:58:27;;;;;;;35.07;18.53;;;4.90;95.20;;;;;;5071285;28;20494;-76
2021/10/11 04:00:53;;;;;;;40.27;18.20;;;4.80;95.40;;;;;;5070347;28;20196;-76
2021/10/11 04:03:19;;;;;;;36.73;19.13;;;4.90;95.60;;;;;;5063913;28;20180;-75
2021/10/11 04:05:45;;;;;;;32.20;17.90;;;4.90;95.40;;;;;;5068796;28;20182;-75
2021/10/11 04:08:18;;;;;;;33.90;18.43;;;4.90;95.40;;;;;;5071590;28;20619;-75
2021/10/11 04:11:02;;;;;;;32.03;17.30;;;4.90;95.30;;;;;;5066109;28;20216;-75
2021/10/11 04:13:27;;;;;;;38.33;18.57;;;4.80;95.50;;;;;;5067162;28;20418;-75
2021/10/11 04:15:53;;;;;;;39.67;20.67;;;4.80;95.60;;;;;;5065960;28;20474;-76
2021/10/11 04:18:19;;;;;;;37.27;18.90;;;4.80;95.70;;;;;;5069252;28;20278;-76
2021/10/11 04:20:45;;;;;;;36.23;18.67;;;4.90;95.70;;;;;;5064252;28;20200;-75
2021/10/11 04:23:11;;;;;;;29.90;18.10;;;4.90;95.80;;;;;;5071492;28;20213;-75
2021/10/11 04:25:37;;;;;;;34.33;19.00;;;4.90;95.80;;;;;;5066002;28;20488;-76
2021/10/11 04:28:03;;;;;;;39.57;17.03;;;4.90;95.80;;;;;;5067309;28;20418;-74
2021/10/11 04:30:29;;;;;;;38.40;18.80;;;5.00;95.80;;;;;;5069308;28;20651;-75
2021/10/11 04:32:55;;;;;;;32.47;17.70;;;5.00;95.70;;;;;;5063551;28;20508;-75
2021/10/11 04:35:25;;;;;;;42.07;19.17;;;5.00;95.40;;;;;;5067324;28;20233;-75
2021/10/11 04:37:51;;;;;;;34.47;19.07;;;5.00;95.40;;;;;;5070112;28;20308;-75
2021/10/11 04:40:18;;;;;;;45.73;19.70;;;5.00;95.40;;;;;;5068679;28;20516;-75
2021/10/11 04:42:44;;;;;;;25.47;16.67;;;5.00;95.30;;;;;;5068887;28;20430;-77
2021/10/11 04:45:11;;;;;;;36.83;19.07;;;5.00;95.30;;;;;;5069945;28;20794;-76
2021/10/11 04:47:37;;;;;;;34.87;18.97;;;5.10;95.40;;;;;;5070365;28;20741;-76
2021/10/11 04:50:04;;;;;;;33.00;18.60;;;5.10;95.10;;;;;;5070323;28;20539;-74
2021/10/11 04:52:29;;;;;;;33.80;18.90;;;5.10;94.90;;;;;;5070042;28;20425;-76
2021/10/11 04:54:55;;;;;;;35.77;18.50;;;5.10;94.90;;;;;;5071227;28;20429;-77
2021/10/11 04:57:21;;;;;;;38.40;18.37;;;5.00;94.80;;;;;;5073869;28;20206;-76
2021/10/11 04:59:47;;;;;;;31.63;17.90;;;5.00;95.00;;;;;;5072158;28;20444;-75
2021/10/11 05:02:12;;;;;;;35.30;20.00;;;5.00;95.00;;;;;;5073791;28;20188;-77
2021/10/11 05:04:38;;;;;;;36.20;19.80;;;5.00;95.00;;;;;;5073147;28;20215;-75
2021/10/11 05:07:04;;;;;;;39.17;19.93;;;5.00;95.20;;;;;;5073674;28;20183;-76
2021/10/11 05:09:30;;;;;;;40.00;18.33;;;5.00;95.20;;;;;;5071343;28;20619;-75
2021/10/11 05:11:55;;;;;;;42.93;21.17;;;5.00;95.30;;;;;;5063513;28;20188;-76
2021/10/11 05:14:21;;;;;;;37.13;19.80;;;4.90;95.20;;;;;;5074641;28;20190;-76
2021/10/11 05:16:47;;;;;;;43.13;17.70;;;4.90;95.30;;;;;;5074528;28;20462;-77
2021/10/11 05:19:14;;;;;;;44.03;19.90;;;4.90;95.40;;;;;;5063192;28;20415;-77
2021/10/11 05:21:40;;;;;;;37.33;18.60;;;4.90;95.40;;;;;;5071429;28;20503;-75
2021/10/11 05:24:06;;;;;;;34.60;17.90;;;5.00;95.60;;;;;;5066177;28;20848;-76
2021/10/11 05:26:31;;;;;;;34.73;17.07;;;5.00;95.30;;;;;;5071653;28;20180;-76
2021/10/11 05:28:58;;;;;;;37.43;17.83;;;5.00;95.30;;;;;;5074330;28;20184;-78
2021/10/11 05:31:24;;;;;;;40.57;20.07;;;5.10;95.40;;;;;;5074119;28;20959;-76
2021/10/11 05:33:50;;;;;;;31.33;18.13;;;5.10;95.30;;;;;;5074175;28;20420;-76
2021/10/11 05:36:16;;;;;;;37.30;17.87;;;5.10;95.20;;;;;;5071099;28;20422;-76
2021/10/11 05:38:42;;;;;;;34.00;17.53;;;5.10;95.00;;;;;;5063261;28;20469;-76
2021/10/11 05:41:08;;;;;;;38.10;19.80;;;5.10;94.90;;;;;;5073653;28;20446;-75
2021/10/11 05:43:33;;;;;;;30.00;17.30;;;5.20;94.90;;;;;;5073583;28;20426;-76
2021/10/11 05:45:59;;;;;;;32.70;17.87;;;5.20;95.00;;;;;;5069075;28;20195;-77
2021/10/11 05:48:25;;;;;;;36.50;18.63;;;5.20;95.00;;;;;;5071111;28;20757;-77
2021/10/11 05:50:50;;;;;;;36.67;21.57;;;5.30;95.00;;;;;;5070213;28;20290;-76
2021/10/11 05:53:16;;;;;;;31.20;17.60;;;5.30;95.00;;;;;;5073914;28;20194;-76
2021/10/11 05:55:42;;;;;;;37.43;19.50;;;5.30;95.00;;;;;;5071628;28;20188;-75
2021/10/11 05:58:08;;;;;;;39.07;18.27;;;5.30;95.00;;;;;;5073638;28;20222;-77
2021/10/11 06:00:33;;;;;;;48.60;20.50;;;5.30;94.90;;;;;;5073707;28;20684;-78
2021/10/11 06:02:59;;;;;;;37.83;17.13;;;5.30;94.80;;;;;;5073550;28;20187;-76
2021/10/11 06:05:25;;;;;;;33.70;18.80;;;5.20;94.10;;;;;;5070723;28;20187;-75
2021/10/11 06:07:51;;;;;;;37.13;18.27;;;5.00;94.60;;;;;;5074162;28;20194;-76
2021/10/11 06:10:16;;;;;;;45.10;20.33;;;5.00;94.90;;;;;;5073864;28;20287;-79
2021/10/11 06:12:43;;;;;;;35.90;19.17;;;4.90;95.10;;;;;;5074482;28;20240;-77
2021/10/11 06:15:10;;;;;;;34.30;17.63;;;4.80;95.40;;;;;;5073507;28;20183;-76
2021/10/11 06:17:35;;;;;;;33.83;18.43;;;4.90;95.70;;;;;;5072965;28;20469;-76
2021/10/11 06:20:01;;;;;;;39.57;19.87;;;5.00;95.80;;;;;;5073920;28;20782;-79
2021/10/11 06:22:27;;;;;;;41.77;18.70;;;5.10;95.60;;;;;;5074359;28;20164;-78
2021/10/11 06:24:53;;;;;;;38.80;18.40;;;5.10;95.60;;;;;;5069302;28;21023;-77
2021/10/11 06:27:18;;;;;;;34.13;18.77;;;5.20;95.60;;;;;;5055397;28;20254;-77
2021/10/11 06:29:44;;;;;;;32.90;18.70;;;5.30;95.50;;;;;;5069112;28;20434;-78
2021/10/11 06:32:12;;;;;;;43.90;19.57;;;5.40;95.30;;;;;;5073036;28;20477;-76
2021/10/11 06:34:38;;;;;;;108.57;26.37;;;5.50;95.10;;;;;;5069208;28;20184;-76
2021/10/11 06:37:03;;;;;;;35.57;18.20;;;5.50;94.80;;;;;;5072695;28;21057;-76
2021/10/11 06:39:29;;;;;;;36.23;18.70;;;5.60;94.70;;;;;;5073381;28;20522;-76
2021/10/11 06:41:55;;;;;;;40.73;19.43;;;5.50;94.40;;;;;;5073788;28;20185;-75
2021/10/11 06:44:21;;;;;;;43.37;20.90;;;5.60;94.30;;;;;;5069697;28;20516;-78
2021/10/11 06:46:49;;;;;;;46.13;19.03;;;5.50;94.30;;;;;;5067859;28;20180;-77
2021/10/11 06:49:15;;;;;;;35.90;19.63;;;5.50;94.40;;;;;;5065961;28;20268;-74
2021/10/11 06:51:40;;;;;;;34.53;17.73;;;5.60;94.50;;;;;;5069519;28;20478;-75
2021/10/11 06:54:06;;;;;;;44.73;19.77;;;5.70;94.30;;;;;;5073699;28;20430;-75
2021/10/11 06:56:32;;;;;;;35.30;19.53;;;5.80;94.20;;;;;;5067723;28;20190;-74
2021/10/11 06:58:57;;;;;;;38.10;19.30;;;5.80;94.20;;;;;;5072762;28;20650;-74
2021/10/11 07:01:23;;;;;;;37.07;18.57;;;5.90;94.30;;;;;;5076245;28;20200;-73
2021/10/11 07:03:49;;;;;;;48.30;22.93;;;6.10;94.20;;;;;;5072706;28;20176;-76
2021/10/11 07:06:20;;;;;;;44.53;19.40;;;6.20;94.10;;;;;;5075230;28;20179;-74
2021/10/11 07:08:46;;;;;;;42.47;18.87;;;6.30;94.10;;;;;;5074723;28;20188;-75
2021/10/11 07:11:11;;;;;;;40.37;21.43;;;6.20;93.70;;;;;;5065807;28;20450;-74
2021/10/11 07:13:37;;;;;;;34.90;18.00;;;6.30;93.40;;;;;;5072960;28;20180;-73
2021/10/11 07:16:04;;;;;;;29.83;16.60;;;6.40;93.10;;;;;;5074950;28;20381;-74
2021/10/11 07:18:31;;;;;;;34.03;18.00;;;6.50;93.00;;;;;;5072850;28;20218;-74
2021/10/11 07:20:57;;;;;;;43.63;20.00;;;6.60;92.80;;;;;;5073892;28;20438;-74
2021/10/11 07:23:22;;;;;;;33.83;18.27;;;6.70;92.60;;;;;;5073002;28;20785;-74
2021/10/11 07:25:48;;;;;;;35.47;19.90;;;6.80;92.30;;;;;;5070162;28;20187;-73
2021/10/11 07:28:14;;;;;;;41.10;18.60;;;6.90;91.40;;;;;;5072756;28;20191;-73
2021/10/11 07:30:39;;;;;;;31.67;18.37;;;6.90;91.30;;;;;;5073190;28;20305;-74
2021/10/11 07:33:07;;;;;;;33.10;17.40;;;7.00;91.40;;;;;;5072693;28;20263;-73
2021/10/11 07:35:34;;;;;;;33.27;18.50;;;7.10;91.10;;;;;;5070198;28;20906;-73
2021/10/11 07:38:00;;;;;;;51.50;18.80;;;7.10;91.00;;;;;;5072250;28;20557;-75
2021/10/11 07:40:26;;;;;;;37.77;18.53;;;7.10;91.20;;;;;;5072517;28;20450;-75
2021/10/11 07:42:51;;;;;;;35.90;19.33;;;7.20;91.20;;;;;;5076158;28;20469;-73
2021/10/11 07:45:17;;;;;;;34.13;17.60;;;7.20;91.30;;;;;;5074111;28;20188;-75
2021/10/11 07:47:44;;;;;;;34.63;19.53;;;7.40;91.10;;;;;;5071373;28;20227;-73
2021/10/11 07:50:11;;;;;;;33.70;19.80;;;7.50;90.90;;;;;;5072594;28;20686;-74
2021/10/11 07:52:36;;;;;;;30.73;18.47;;;7.70;90.70;;;;;;5073211;28;20967;-74
2021/10/11 07:55:03;;;;;;;32.73;18.03;;;7.80;90.50;;;;;;5072866;28;20450;-73
2021/10/11 07:57:33;;;;;;;39.30;19.70;;;7.90;90.20;;;;;;5068289;28;20264;-73
2021/10/11 08:00:04;;;;;;;33.27;18.23;;;8.00;90.30;;;;;;5059071;28;21009;-73
2021/10/11 08:02:30;;;;;;;33.83;17.27;;;8.10;90.00;;;;;;5071265;28;20618;-73
2021/10/11 08:04:56;;;;;;;33.50;18.77;;;8.30;89.20;;;;;;5070263;28;20418;-75
2021/10/11 08:07:22;;;;;;;32.53;17.70;;;8.50;88.10;;;;;;5076539;28;20429;-74
2021/10/11 08:09:47;;;;;;;40.53;19.80;;;8.50;87.80;;;;;;5073588;28;20211;-74
2021/10/11 08:12:13;;;;;;;33.57;18.63;;;8.60;87.70;;;;;;5067380;28;20184;-74
2021/10/11 08:14:39;;;;;;;36.17;18.83;;;8.80;86.90;;;;;;5071219;28;20197;-73
2021/10/11 08:17:05;;;;;;;30.87;18.20;;;8.90;86.20;;;;;;5071455;28;20200;-72
2021/10/11 08:19:30;;;;;;;36.10;20.77;;;8.90;86.30;;;;;;5070845;28;20247;-74
2021/10/11 08:21:56;;;;;;;30.80;17.00;;;9.00;85.90;;;;;;5071019;28;20188;-74
2021/10/11 08:24:22;;;;;;;34.07;18.17;;;9.10;86.00;;;;;;5064742;28;20198;-74
2021/10/11 08:26:48;;;;;;;35.83;18.77;;;9.30;86.00;;;;;;5071379;28;20191;-73
2021/10/11 08:29:14;;;;;;;33.00;18.10;;;9.40;85.00;;;;;;5072652;28;20192;-75
2021/10/11 08:31:39;;;;;;;36.67;19.10;;;9.50;83.70;;;;;;5075405;28;20200;-75
2021/10/11 08:34:05;;;;;;;33.63;18.17;;;9.60;82.80;;;;;;5071650;28;20503;-75
2021/10/11 08:36:31;;;;;;;36.40;17.93;;;9.50;82.50;;;;;;5075292;28;20523;-75
2021/10/11 08:38:57;;;;;;;30.17;16.80;;;9.50;82.70;;;;;;5074144;28;20199;-73
2021/10/11 08:41:23;;;;;;;29.80;16.57;;;9.40;83.10;;;;;;5073548;28;20204;-75
2021/10/11 08:43:49;;;;;;;31.53;18.37;;;9.50;83.30;;;;;;5074235;28;20490;-74
2021/10/11 08:46:15;;;;;;;36.60;18.60;;;9.70;83.10;;;;;;5074909;28;20429;-75
2021/10/11 08:48:41;;;;;;;39.77;18.07;;;9.80;83.00;;;;;;5071649;28;20188;-75
2021/10/11 08:51:08;;;;;;;31.03;17.10;;;9.90;83.00;;;;;;5074107;28;20442;-74
2021/10/11 08:53:35;;;;;;;27.60;17.50;;;10.00;82.50;;;;;;5066651;28;20458;-76
2021/10/11 08:56:01;;;;;;;34.23;19.13;;;10.10;81.70;;;;;;5073744;28;20429;-75
2021/10/11 08:58:27;;;;;;;33.70;19.17;;;10.30;80.60;;;;;;5063216;28;20467;-75
2021/10/11 09:01:04;;;;;;;31.23;17.87;;;10.40;79.30;;;;;;5071233;28;20217;-75
2021/10/11 09:03:30;;;;;;;31.83;17.40;;;10.50;79.30;;;;;;5056645;28;20538;-75
2021/10/11 09:06:06;;;;;;;29.80;18.30;;;10.70;79.30;;;;;;5074153;28;20432;-75
2021/10/11 09:08:33;;;;;;;32.63;16.83;;;10.90;78.30;;;;;;5064080;28;20346;-75
2021/10/11 09:11:05;;;;;;;29.60;17.30;;;11.00;78.30;;;;;;5074581;28;20437;-75
2021/10/11 09:13:45;;;;;;;33.27;17.70;;;11.20;77.40;;;;;;5072467;28;20955;-74
2021/10/11 09:16:23;;;;;;;29.03;17.23;;;11.40;76.20;;;;;;5072719;28;20429;-75
2021/10/11 09:18:55;;;;;;;29.40;17.57;;;11.40;75.20;;;;;;5073931;28;20823;-74
2021/10/11 09:21:34;;;;;;;31.03;17.23;;;11.50;75.50;;;;;;5073940;28;20461;-74
2021/10/11 09:24:14;;;;;;;34.87;17.47;;;11.50;74.90;;;;;;5073421;28;20413;-74
2021/10/11 09:27:00;;;;;;;28.17;16.90;;;11.50;74.80;;;;;;5074276;28;20421;-74
2021/10/11 09:29:29;;;;;;;30.17;17.00;;;11.50;75.70;;;;;;5063109;28;20411;-75
2021/10/11 09:31:59;;;;;;;27.60;16.23;;;11.60;75.50;;;;;;5065245;28;20418;-74
2021/10/11 09:34:25;;;;;;;32.73;16.33;;;11.60;74.30;;;;;;5073583;28;20793;-74
2021/10/11 09:37:05;;;;;;;32.13;19.03;;;11.60;74.80;;;;;;5073002;28;20538;-74
2021/10/11 09:39:35;;;;;;;30.17;16.70;;;11.60;75.20;;;;;;5073172;28;20511;-75
2021/10/11 09:42:03;;;;;;;26.97;16.00;;;11.50;75.40;;;;;;5073051;28;20452;-74
2021/10/11 09:44:28;;;;;;;50.47;17.60;;;11.60;74.90;;;;;;5073856;28;20513;-74
2021/10/11 09:47:01;;;;;;;34.67;17.00;;;11.70;74.80;;;;;;5073684;28;20517;-74
2021/10/11 09:49:27;;;;;;;28.97;17.17;;;11.80;74.80;;;;;;5065034;28;20188;-75
2021/10/11 09:51:54;;;;;;;33.10;17.30;;;11.80;74.50;;;;;;5075038;28;20417;-74
2021/10/11 09:54:21;;;;;;;31.33;17.00;;;11.90;73.90;;;;;;5067812;28;20179;-75
2021/10/11 09:56:47;;;;;;;31.40;17.10;;;11.90;73.50;;;;;;5075977;28;20476;-74
2021/10/11 09:59:16;;;;;;;32.37;17.40;;;11.80;73.90;;;;;;5071526;28;20981;-74
2021/10/11 10:01:43;;;;;;;37.73;17.80;;;11.90;74.50;;;;;;5066539;28;20943;-73
2021/10/11 10:04:34;;;;;;;35.90;17.33;;;11.80;74.30;;;;;;5068998;28;20426;-74
2021/10/11 10:07:03;;;;;;;29.93;17.20;;;12.00;74.00;;;;;;5073601;28;20445;-75
2021/10/11 10:09:30;;;;;;;30.73;16.77;;;12.10;73.60;;;;;;5072253;28;20433;-75
2021/10/11 10:11:57;;;;;;;31.60;15.67;;;12.20;73.30;;;;;;5075097;28;20422;-74
2021/10/11 10:14:25;;;;;;;30.60;15.57;;;12.30;73.70;;;;;;5065488;28;20411;-75
2021/10/11 10:16:54;;;;;;;28.27;15.93;;;12.50;72.70;;;;;;5070807;28;20476;-74
2021/10/11 10:19:32;;;;;;;34.93;17.00;;;12.60;71.40;;;;;;5073093;28;20418;-75
2021/10/11 10:21:58;;;;;;;30.90;16.87;;;12.70;70.70;;;;;;5088215;28;20464;-74
2021/10/11 10:24:25;;;;;;;28.43;16.23;;;12.70;71.60;;;;;;5066061;28;20427;-74
2021/10/11 10:27:05;;;;;;;38.37;18.27;;;12.90;72.70;;;;;;5071853;28;20501;-75
2021/10/11 10:29:41;;;;;;;29.70;16.80;;;13.10;70.80;;;;;;5070816;28;20430;-75
2021/10/11 10:32:08;;;;;;;30.17;16.17;;;13.50;69.20;;;;;;5072925;28;20790;-73
2021/10/11 10:34:34;;;;;;;46.60;17.30;;;13.70;68.20;;;;;;5071597;28;20445;-75
2021/10/11 10:37:06;;;;;;;34.20;17.90;;;14.00;68.50;;;;;;5072883;28;20523;-75
2021/10/11 10:39:43;;;;;;;30.40;17.43;;;14.50;66.90;;;;;;5072617;28;20214;-74
2021/10/11 10:42:19;;;;;;;32.80;19.33;;;15.00;65.60;;;;;;5073133;28;20513;-73
2021/10/11 10:44:46;;;;;;;30.83;19.10;;;15.30;62.80;;;;;;5072854;28;20427;-76
2021/10/11 10:47:11;;;;;;;32.13;18.93;;;15.40;62.90;;;;;;5072845;28;20952;-74
2021/10/11 10:49:46;;;;;;;31.77;17.90;;;15.50;61.90;;;;;;5072355;28;20449;-76
2021/10/11 10:52:20;;;;;;;35.17;18.57;;;15.60;61.70;;;;;;5064569;28;20658;-75
2021/10/11 10:55:07;;;;;;;29.77;16.00;;;15.80;61.00;;;;;;5072524;28;20428;-75
2021/10/11 10:57:33;;;;;;;33.07;18.47;;;16.10;60.30;;;;;;5075800;28;20467;-74
2021/10/11 11:00:13;;;;;;;36.60;19.13;;;16.30;59.30;;;;;;5063669;28;20438;-75
2021/10/11 11:02:44;;;;;;;29.57;18.07;;;16.00;59.70;;;;;;5071843;28;20433;-74
2021/10/11 11:05:10;;;;;;;29.80;16.70;;;16.00;60.60;;;;;;5072502;28;20777;-76
2021/10/11 11:07:38;;;;;;;28.90;16.77;;;15.90;60.30;;;;;;5075063;28;20413;-75
2021/10/11 11:10:16;;;;;;;24.70;14.87;;;16.10;60.60;;;;;;5072686;28;20539;-73
2021/10/11 11:12:44;;;;;;;33.73;17.90;;;16.50;59.90;;;;;;5073409;28;20816;-77
2021/10/11 11:15:24;;;;;;;36.57;17.20;;;16.50;57.70;;;;;;5071797;28;20523;-75
2021/10/11 11:17:51;;;;;;;33.80;16.77;;;16.40;58.70;;;;;;5070433;28;20464;-75
2021/10/11 11:20:26;;;;;;;30.90;17.57;;;16.20;58.90;;;;;;5070674;28;20440;-75
2021/10/11 11:22:54;;;;;;;38.70;18.17;;;15.90;59.30;;;;;;5070864;28;20539;-76
2021/10/11 11:25:28;;;;;;;39.90;19.23;;;15.60;60.10;;;;;;5071258;28;20482;-75
2021/10/11 11:27:56;;;;;;;27.53;16.90;;;15.80;60.10;;;;;;5071847;28;20425;-76
2021/10/11 11:30:23;;;;;;;33.63;18.57;;;15.90;60.60;;;;;;5071639;28;20521;-76
2021/10/11 11:32:53;;;;;;;34.53;18.07;;;16.10;59.90;;;;;;5071407;28;20414;-75
2021/10/11 11:35:22;;;;;;;33.93;17.00;;;16.20;59.70;;;;;;5070648;28;20422;-74
2021/10/11 11:37:49;;;;;;;32.10;17.57;;;16.40;59.10;;;;;;5069940;28;20477;-75
2021/10/11 11:40:20;;;;;;;33.17;17.50;;;16.60;57.60;;;;;;5071619;28;20534;-77
2021/10/11 11:42:49;;;;;;;28.20;15.77;;;16.70;57.30;;;;;;5071892;28;20429;-75
2021/10/11 11:45:21;;;;;;;29.63;15.33;;;16.40;57.20;;;;;;5061294;28;20862;-75
2021/10/11 11:47:47;;;;;;;26.40;15.53;;;15.90;57.80;;;;;;5068656;28;20483;-75
2021/10/11 11:50:22;;;;;;;25.23;14.43;;;15.70;58.70;;;;;;5075691;28;20808;-73
2021/10/11 11:52:57;;;;;;;23.63;14.00;;;15.70;59.10;;;;;;5079368;28;20962;-75
2021/10/11 11:55:22;;;;;;;25.87;15.13;;;15.70;59.10;;;;;;5075105;28;20436;-75
2021/10/11 11:57:48;;;;;;;32.87;15.97;;;15.80;59.30;;;;;;5076243;28;20459;-73
2021/10/11 12:00:15;;;;;;;28.80;15.17;;;15.70;59.90;;;;;;5067596;28;20198;-75
2021/10/11 12:02:43;;;;;;;19.17;13.83;;;16.00;59.90;;;;;;5080317;28;20184;-74
2021/10/11 12:05:10;;;;;;;29.10;15.80;;;16.00;59.30;;;;;;5072668;28;20920;-73
2021/10/11 12:07:39;;;;;;;27.63;15.93;;;16.30;58.20;;;;;;5069653;28;20485;-75
2021/10/11 12:10:06;;;;;;;31.93;16.70;;;16.20;58.90;;;;;;5069141;28;20500;-75
2021/10/11 12:12:34;;;;;;;31.50;17.23;;;16.00;59.90;;;;;;5070845;28;20423;-75
2021/10/11 12:15:00;;;;;;;28.97;16.27;;;16.00;59.90;;;;;;5069531;28;20425;-74
2021/10/11 12:17:32;;;;;;;26.97;15.77;;;16.20;59.70;;;;;;5070792;28;20775;-76
2021/10/11 12:19:59;;;;;;;30.60;16.57;;;16.10;59.70;;;;;;5072649;28;21530;-74
2021/10/11 12:22:29;;;;;;;30.27;15.80;;;16.00;59.50;;;;;;5073250;28;20418;-75
2021/10/11 12:25:04;;;;;;;32.80;17.80;;;15.90;60.70;;;;;;5074253;28;20410;-73
2021/10/11 12:27:30;;;;;;;30.23;15.23;;;16.10;60.30;;;;;;5061282;28;20512;-77
2021/10/11 12:30:01;;;;;;;27.43;16.30;;;16.30;60.40;;;;;;5070504;28;20528;-77
2021/10/11 12:32:29;;;;;;;28.17;15.77;;;16.60;58.80;;;;;;5070680;28;20869;-75
2021/10/11 12:34:56;;;;;;;28.73;15.97;;;16.90;58.10;;;;;;5068769;28;20433;-75